Flight Track Log - Related Links

Times and Time Zones

All times are in EDT time to prevent confusion due to time zone crossing. See the UAL1423 flight status page for this flight to view local times or setup timezone preferences in your user account.

Time Position Orientation Groundspeed Altitude Reporting Facility
EDT Latitude Longitude Course Direction KTS MPH feet Rate Location/Type
Sat 09:12:15 AM 12.1679 -86.1755 341° North  Level FlightAware Approximate
Sat 09:13:15 AM 12.2738 -86.2047 341° North  Level FlightAware Approximate
Sat 09:14:15 AM 12.3796 -86.2340 341° North  Level FlightAware Approximate
Sat 09:15:15 AM 12.4854 -86.2633 341° North  Level FlightAware Approximate
Sat 09:16:15 AM 12.5912 -86.2926 341° North  Level FlightAware Approximate
Sat 09:17:15 AM 12.6970 -86.3219 341° North  Level FlightAware Approximate
Sat 09:18:15 AM 12.8028 -86.3512 341° North  Level FlightAware Approximate
Sat 09:19:15 AM 12.9086 -86.3806 341° North  Level FlightAware Approximate
Sat 09:20:15 AM 13.0143 -86.4100 341° North  Level FlightAware Approximate
Sat 09:21:15 AM 13.1201 -86.4395 341° North  Level FlightAware Approximate
Sat 09:22:15 AM 13.2259 -86.4689 341° North  Level FlightAware Approximate
Sat 09:23:15 AM 13.3317 -86.4984 341° North  Level FlightAware Approximate
Sat 09:24:15 AM 13.4375 -86.5279 341° North  Level FlightAware Approximate
Sat 09:25:15 AM 13.5432 -86.5574 341° North  Level FlightAware Approximate
Sat 09:26:15 AM 13.6490 -86.5870 341° North  Level FlightAware Approximate
Sat 09:27:15 AM 13.7548 -86.6166 341° North  Level FlightAware Approximate
Sat 09:28:15 AM 13.8605 -86.6462 341° North  Level FlightAware Approximate
Sat 09:29:15 AM 13.9663 -86.6758 341° North  Level FlightAware Approximate
Sat 09:30:15 AM 14.0720 -86.7055 341° North  Level FlightAware Approximate
Sat 09:31:15 AM 14.1778 -86.7352 341° North  Level FlightAware Approximate
Sat 09:32:15 AM 14.2838 -86.7639 341° North  Level FlightAware Approximate
Sat 09:33:15 AM 14.3895 -86.7939 341° North  Level FlightAware Approximate
Sat 09:34:15 AM 14.4951 -86.8238 341° North  Level FlightAware Approximate
Sat 09:35:15 AM 14.6008 -86.8538 341° North  Level FlightAware Approximate
Sat 09:36:15 AM 14.7065 -86.8838 340° North  Level FlightAware Approximate
Sat 09:37:15 AM 14.8122 -86.9138 340° North  Level FlightAware Approximate
Sat 09:38:15 AM 14.9179 -86.9439 340° North  Level FlightAware Approximate
Sat 09:39:15 AM 15.0203 -86.9730 340° North  Level FlightAware Approximate
Sat 09:40:15 AM 15.1226 -87.0022 340° North  Level FlightAware Approximate
Sat 09:41:15 AM 15.2250 -87.0314 340° North  Level FlightAware Approximate
Sat 09:42:15 AM 15.3273 -87.0606 340° North  Level FlightAware Approximate
Sat 09:43:15 AM 15.4297 -87.0899 340° North  Level FlightAware Approximate
Sat 09:44:15 AM 15.5320 -87.1193 340° North  Level FlightAware Approximate
Sat 09:45:15 AM 15.6343 -87.1487 340° North  Level FlightAware Approximate
Sat 09:46:15 AM 15.7367 -87.1782 340° North  Level FlightAware Approximate
Sat 09:47:15 AM 15.8390 -87.2077 340° North  Level FlightAware Approximate
Sat 09:48:15 AM 15.9413 -87.2372 340° North  Level FlightAware Approximate
Sat 09:49:15 AM 16.0436 -87.2668 340° North  Level FlightAware Approximate
Sat 09:50:15 AM 16.1459 -87.2964 340° North  Level FlightAware Approximate
Sat 09:51:15 AM 16.2481 -87.3260 340° North  Level FlightAware Approximate
Sat 09:52:15 AM 16.3504 -87.3557 340° North  Level FlightAware Approximate
Sat 09:53:15 AM 16.4527 -87.3854 340° North  Level FlightAware Approximate
Sat 09:54:15 AM 16.5550 -87.4151 340° North  Level FlightAware Approximate
Sat 09:55:15 AM 16.6573 -87.4448 340° North  Level FlightAware Approximate
Sat 09:56:15 AM 16.7595 -87.4746 340° North  Level FlightAware Approximate
Sat 09:57:15 AM 16.8618 -87.5044 339° North  Level FlightAware Approximate
Sat 09:58:15 AM 16.9641 -87.5343 339° North  Level FlightAware Approximate
Sat 09:59:15 AM 17.0663 -87.5642 339° North  Level FlightAware Approximate
Sat 10:00:15 AM 17.1686 -87.5941 339° North  Level FlightAware Approximate
Sat 10:01:15 AM 17.2708 -87.6240 339° North  Level FlightAware Approximate
Sat 10:02:15 AM 17.3731 -87.6540 339° North  Level FlightAware Approximate
Sat 10:03:15 AM 17.4753 -87.6840 339° North  Level FlightAware Approximate
Sat 10:04:15 AM 17.5775 -87.7141 339° North  Level FlightAware Approximate
Sat 10:05:15 AM 17.6798 -87.7441 339° North  Level FlightAware Approximate
Sat 10:06:15 AM 17.7820 -87.7742 339° North  Level FlightAware Approximate
Sat 10:07:15 AM 17.8842 -87.8044 339° North  Level FlightAware Approximate
Sat 10:08:15 AM 17.9864 -87.8346 339° North  Level FlightAware Approximate
Sat 10:09:15 AM 18.0886 -87.8648 339° North  Level FlightAware Approximate
Sat 10:10:15 AM 18.1927 -87.8865 339° North  Level FlightAware Approximate
Sat 10:11:15 AM 18.2949 -87.9170 339° North  Level FlightAware Approximate
Sat 10:12:15 AM 18.3962 -87.9472 338° Northwest  Level FlightAware Approximate
Sat 10:13:15 AM 18.4983 -87.9778 338° Northwest  Level FlightAware Approximate
Sat 10:14:15 AM 18.6005 -88.0084 338° Northwest  Level FlightAware Approximate
Sat 10:15:15 AM 18.7026 -88.0391 338° Northwest  Level FlightAware Approximate
Sat 10:16:15 AM 18.8047 -88.0698 338° Northwest  Level FlightAware Approximate
Sat 10:17:15 AM 18.9068 -88.1005 338° Northwest  Level FlightAware Approximate
Sat 10:18:15 AM 19.0089 -88.1313 338° Northwest  Level FlightAware Approximate
Sat 10:19:15 AM 19.1110 -88.1621 338° Northwest  Level FlightAware Approximate
Sat 10:20:15 AM 19.2131 -88.1929 338° Northwest  Level FlightAware Approximate
Sat 10:21:15 AM 19.3152 -88.2238 338° Northwest  Level FlightAware Approximate
Sat 10:22:15 AM 19.4173 -88.2547 338° Northwest  Level FlightAware Approximate
Sat 10:23:15 AM 19.5188 -88.2875 338° Northwest  Level FlightAware Approximate
Sat 10:24:15 AM 19.6210 -88.3182 337° Northwest  Level FlightAware Approximate
Sat 10:25:15 AM 19.7231 -88.3490 337° Northwest  Level FlightAware Approximate
Sat 10:26:15 AM 19.8253 -88.3798 337° Northwest  Level FlightAware Approximate
Sat 10:27:15 AM 19.9274 -88.4107 337° Northwest  Level FlightAware Approximate
Sat 10:28:15 AM 20.0295 -88.4415 337° Northwest  Level FlightAware Approximate
Sat 10:29:15 AM 20.1316 -88.4725 337° Northwest  Level FlightAware Approximate
Sat 10:30:15 AM 20.2338 -88.5034 337° Northwest  Level FlightAware Approximate
Sat 10:31:15 AM 20.3359 -88.5344 337° Northwest  Level FlightAware Approximate
Sat 10:32:15 AM 20.4380 -88.5655 337° Northwest  Level FlightAware Approximate
Sat 10:33:15 AM 20.5401 -88.5966 336° Northwest  Level FlightAware Approximate
Sat 10:34:15 AM 20.6422 -88.6277 336° Northwest  Level FlightAware Approximate
Sat 10:35:15 AM 20.7443 -88.6589 336° Northwest  Level FlightAware Approximate
Sat 10:36:15 AM 20.8464 -88.6901 336° Northwest  Level FlightAware Approximate
Sat 10:37:15 AM 20.9484 -88.7214 336° Northwest  Level FlightAware Approximate
Sat 10:38:15 AM 21.0513 -88.7681 336° Northwest  Level FlightAware Approximate
Sat 10:39:15 AM 21.1541 -88.8149 336° Northwest  Level FlightAware Approximate
Sat 10:40:15 AM 21.2569 -88.8617 336° Northwest  Level FlightAware Approximate
Sat 10:41:15 AM 21.3597 -88.9087 336° Northwest  Level FlightAware Approximate
Sat 10:42:15 AM 21.4625 -88.9557 336° Northwest  Level FlightAware Approximate
Sat 10:43:15 AM 21.5653 -89.0027 336° Northwest  Level FlightAware Approximate
Sat 10:44:15 AM 21.6681 -89.0499 336° Northwest  Level FlightAware Approximate
Sat 10:45:15 AM 21.7708 -89.0971 336° Northwest  Level FlightAware Approximate
Sat 10:46:15 AM 21.8736 -89.1443 336° Northwest  Level FlightAware Approximate
Sat 10:47:15 AM 21.9763 -89.1917 335° Northwest  Level FlightAware Approximate
Sat 10:48:15 AM 22.0790 -89.2391 335° Northwest  Level FlightAware Approximate
Sat 10:49:15 AM 22.1817 -89.2865 335° Northwest  Level FlightAware Approximate
Sat 10:50:15 AM 22.2844 -89.3341 335° Northwest  Level FlightAware Approximate
Sat 10:51:15 AM 22.3870 -89.3817 335° Northwest  Level FlightAware Approximate
Sat 10:52:15 AM 22.4897 -89.4294 335° Northwest  Level FlightAware Approximate
Sat 10:53:15 AM 22.5923 -89.4771 335° Northwest  Level FlightAware Approximate
Sat 10:54:15 AM 22.6950 -89.5249 335° Northwest  Level FlightAware Approximate
Sat 10:55:15 AM 22.7731 -89.6031 335° Northwest  Level FlightAware Approximate
Sat 10:56:15 AM 22.8742 -89.6547 335° Northwest  Level FlightAware Approximate
Sat 10:57:15 AM 22.9752 -89.7064 335° Northwest  Level FlightAware Approximate
Sat 10:58:15 AM 23.0763 -89.7582 335° Northwest  Level FlightAware Approximate
Sat 10:59:15 AM 23.1773 -89.8100 335° Northwest  Level FlightAware Approximate
Sat 11:00:15 AM 23.2783 -89.8619 335° Northwest  Level FlightAware Approximate
Sat 11:01:15 AM 23.3793 -89.9139 335° Northwest  Level FlightAware Approximate
Sat 11:02:15 AM 23.4803 -89.9660 335° Northwest  Level FlightAware Approximate
Sat 11:03:15 AM 23.5812 -90.0182 336° Northwest  Level FlightAware Approximate
Sat 11:04:15 AM 23.6822 -90.0704 336° Northwest  Level FlightAware Approximate
Sat 11:05:15 AM 23.7831 -90.1227 336° Northwest  Level FlightAware Approximate
Sat 11:06:15 AM 23.8840 -90.1752 336° Northwest  Level FlightAware Approximate
Sat 11:07:15 AM 23.9849 -90.2277 336° Northwest  Level FlightAware Approximate
Sat 11:32:50 AM 26.8500 -91.6914 324° Northwest 447 514 38,000  Level Houston Center
Sat 11:33:49 AM 26.9333 -91.7589 322° Northwest 433 498 38,000  Level Houston Center
Sat 11:34:50 AM 27.0231 -91.8383 328° Northwest 417 480 38,000  Level Houston Center
Sat 11:35:50 AM 27.1172 -91.9039 323° Northwest 411 473 38,000  Level Houston Center
Sat 11:36:49 AM 27.2089 -91.9811 328° Northwest 411 473 38,000  Level Houston Center
Sat 11:37:49 AM 27.3047 -92.0492 321° Northwest 406 467 38,000  Level Houston Center
Sat 11:38:50 AM 27.3944 -92.1314 323° Northwest 406 467 38,000  Level Houston Center
Sat 11:39:49 AM 27.4861 -92.2092 325° Northwest 411 473 38,000  Level Houston Center
Sat 11:40:50 AM 27.5775 -92.2822 323° Northwest 411 473 38,000  Level Houston Center
Sat 11:41:50 AM 27.6672 -92.3578 327° Northwest 411 473 38,000  Level Houston Center
Sat 11:42:50 AM 27.7608 -92.4267 321° Northwest 406 467 38,000  Level Houston Center
Sat 11:43:50 AM 27.8522 -92.5094 330° Northwest 406 467 38,000  Level Houston Center
Sat 11:44:50 AM 27.9458 -92.5714 324° Northwest 406 467 38,000  Level Houston Center
Sat 11:45:50 AM 28.0372 -92.6475 322° Northwest 406 467 38,000  Level Houston Center
Sat 11:46:50 AM 28.1264 -92.7261 321° Northwest 406 467 38,000  Level Houston Center
Sat 11:47:50 AM 28.2156 -92.8072 326° Northwest 411 473 38,000  Level Houston Center
Sat 11:48:49 AM 28.3089 -92.8789 322° Northwest 411 473 38,000 -50 Level Houston Center
Sat 11:49:50 AM 28.4000 -92.9603 326° Northwest 411 473 37,900 -545 Descending Houston Center
Sat 11:50:50 AM 28.4914 -93.0300 322° Northwest 411 473 36,900 -950 Descending Houston Center
Sat 11:51:50 AM 28.5844 -93.1117 324° Northwest 411 473 36,000 -950 Descending Houston Center
Sat 11:52:50 AM 28.6819 -93.1911 323° Northwest 416 479 35,000 -950 Descending Houston Center
Sat 11:53:50 AM 28.7769 -93.2731 325° Northwest 423 487 34,100 -950 Descending Houston Center
Sat 11:54:50 AM 28.8722 -93.3503 324° Northwest 423 487 33,100 -950 Descending Houston Center
Sat 11:55:50 AM 28.9672 -93.4278 323° Northwest 429 494 32,200 -950 Descending Houston Center
Sat 11:56:50 AM 29.0664 -93.5128 323° Northwest 429 494 31,200 -1,350 Descending Houston Center
Sat 11:57:50 AM 29.1633 -93.5953 323° Northwest 434 499 29,500 -2,017 Descending Houston Center
Sat 11:58:49 AM 29.2603 -93.6781 323° Northwest 434 499 27,200 -2,300 Descending Houston Center
Sat 11:59:50 AM 29.3592 -93.7633 324° Northwest 426 490 24,900 -2,231 Descending Houston Center
Sat 12:00:50 PM 29.4478 -93.8367 312° West 410 472 22,700 -2,300 Descending Houston Center
Sat 12:01:50 PM 29.5214 -93.9292 272° West 398 458 20,300 -2,250 Descending Houston Center
Sat 12:02:50 PM 29.5256 -94.0508 269° West 363 418 18,200 -2,160 Descending Houston Center
Sat 12:03:30 PM 29.5242 -94.1294 272° West 368 423 16,700 -2,111 Descending Houston Center
Sat 12:04:38 PM 29.5281 -94.2586 280° West 359 413 14,400 -1,629 Descending Houston Center
Sat 12:05:50 PM 29.5467 -94.3761 297° West 358 412 12,900 -1,818 Descending Houston Center
Sat 12:06:50 PM 29.5886 -94.4728 294° West 341 392 10,400 -1,744 Descending Houston Center
Sat 12:07:47 PM 29.6261 -94.5717 299° West 296 341 9,500 -1,220 Descending Houston Center
Sat 12:08:48 PM 29.6681 -94.6589 323° Northwest 309 356 8,000 -1,328 Descending Houston Center
Sat 12:09:49 PM 29.7336 -94.7158 325° Northwest 288 331 6,800 -1,082 Descending Houston Center
Sat 12:10:50 PM 29.7931 -94.7631 323° Northwest 288 331 5,800 -1,240 Descending Houston Center
Sat 12:11:50 PM 29.8525 -94.8150 324° Northwest 281 323 4,300 -1,333 Descending Houston Center
Sat 12:12:47 PM 29.9181 -94.8697 318° Northwest 275 316 3,200 -661 Descending Houston Center
Sat 12:13:48 PM 29.9750 -94.9292 274° West 254 292 3,000 -98 Descending Houston Center
Sat 12:14:50 PM 29.9797 -94.9989 270° West 248 285 3,000  Level Houston Center
Sat 12:15:50 PM 29.9797 -95.0781 268° West 236 272 3,000 -150 Level Houston Center
Sat 12:16:50 PM 29.9778 -95.1522 270° West 243 280 2,700 -600 Descending Houston Center
Sat 12:17:50 PM 29.9781 -95.2217 268° West 232 267 1,800 -1,065 Descending Houston Center
Sat 12:18:54 PM 29.9764 -95.2839 268° West 160 184 500 -1,219 Descending Houston Center

Login

Don't have an account? Register now (free) for customized features, flight alerts, and more!